Time;durP1;ratioP1;P1;durP2;ratioP2;P2;SDS_P1;SDS_P2;PMS_P1;PMS_P2;Temp;Humidity;BMP_temperature;BMP_pressure;BME280_temperature;BME280_humidity;BME280_pressure;Samples;Min_cycle;Max_cycle;Signal;HPM_P1;HPM_P2
2024/02/27 00:02:16;;;;;;;3.00;2.07;;;9.20;98.00;;;;;;5051693;28;20454;-72
2024/02/27 00:04:43;;;;;;;3.50;2.00;;;9.10;98.00;;;;;;5051465;28;20831;-72
2024/02/27 00:07:11;;;;;;;3.93;2.30;;;9.20;98.00;;;;;;5051653;28;20504;-71
2024/02/27 00:09:38;;;;;;;4.63;2.03;;;9.10;98.00;;;;;;5051699;28;20458;-72
2024/02/27 00:12:08;;;;;;;2.40;1.70;;;9.10;98.00;;;;;;5033938;28;20446;-72
2024/02/27 00:14:35;;;;;;;3.37;1.63;;;9.10;98.00;;;;;;5051589;28;20457;-72
2024/02/27 00:17:04;;;;;;;1.70;1.57;;;9.20;98.00;;;;;;5033831;28;20450;-71
2024/02/27 00:19:33;;;;;;;1.90;1.53;;;9.30;98.00;;;;;;5051720;28;20493;-71
2024/02/27 00:22:00;;;;;;;1.90;1.50;;;9.30;98.00;;;;;;5051852;28;20449;-72
2024/02/27 00:24:28;;;;;;;1.50;1.40;;;9.30;98.00;;;;;;5051496;28;20937;-72
2024/02/27 00:26:56;;;;;;;1.80;1.40;;;9.40;98.00;;;;;;5051654;28;20446;-72
2024/02/27 00:29:23;;;;;;;2.70;1.27;;;9.40;98.00;;;;;;5033845;28;20448;-72
2024/02/27 00:31:50;;;;;;;1.70;1.40;;;9.50;98.00;;;;;;5051230;28;20462;-71
2024/02/27 00:34:18;;;;;;;1.70;1.33;;;9.60;98.00;;;;;;5051694;28;20457;-72
2024/02/27 00:36:45;;;;;;;1.90;1.40;;;9.60;98.00;;;;;;5051623;28;20454;-72
2024/02/27 00:39:12;;;;;;;1.90;1.30;;;9.50;98.00;;;;;;5051375;28;20492;-72
2024/02/27 00:41:40;;;;;;;1.20;1.13;;;9.60;98.00;;;;;;5051478;28;20507;-71
2024/02/27 00:44:09;;;;;;;1.43;1.30;;;9.60;98.00;;;;;;5051712;28;20536;-71
2024/02/27 00:46:38;;;;;;;1.47;1.30;;;9.60;98.00;;;;;;5055804;28;20456;-71
2024/02/27 00:49:05;;;;;;;1.30;1.10;;;9.70;98.00;;;;;;5037734;28;20461;-72
2024/02/27 00:51:36;;;;;;;2.43;1.33;;;9.70;98.00;;;;;;5055318;28;21008;-71
2024/02/27 00:54:03;;;;;;;1.80;1.50;;;9.80;98.00;;;;;;5055829;28;20454;-71
2024/02/27 00:56:30;;;;;;;2.03;1.53;;;9.80;98.00;;;;;;5055499;28;20457;-72
2024/02/27 00:58:57;;;;;;;2.27;1.60;;;9.80;98.00;;;;;;5055450;28;20482;-72
2024/02/27 01:01:24;;;;;;;2.43;1.70;;;9.80;98.00;;;;;;5055336;28;20866;-72
2024/02/27 01:03:51;;;;;;;2.47;1.50;;;9.80;98.00;;;;;;5037669;28;20447;-72
2024/02/27 01:06:18;;;;;;;1.70;1.47;;;9.80;98.00;;;;;;5037757;28;20462;-72
2024/02/27 01:08:47;;;;;;;1.50;1.30;;;9.80;98.00;;;;;;5055726;28;20457;-71
2024/02/27 01:11:14;;;;;;;1.93;1.30;;;9.80;98.00;;;;;;5054948;28;20560;-72
2024/02/27 01:13:41;;;;;;;1.83;1.50;;;9.80;98.00;;;;;;5055324;28;20960;-72
2024/02/27 01:16:08;;;;;;;4.57;2.23;;;9.80;98.00;;;;;;5055339;28;20455;-71
2024/02/27 01:18:35;;;;;;;2.47;1.80;;;9.80;98.00;;;;;;5054789;28;21028;-71
2024/02/27 01:21:05;;;;;;;2.97;1.90;;;9.90;98.00;;;;;;5054587;28;20451;-71
2024/02/27 01:23:32;;;;;;;3.37;2.20;;;9.80;98.00;;;;;;5054587;28;20464;-72
2024/02/27 01:26:02;;;;;;;4.03;2.50;;;9.80;98.00;;;;;;5037127;28;20449;-72
2024/02/27 01:28:29;;;;;;;4.40;2.53;;;9.80;98.00;;;;;;5054750;28;20453;-71
2024/02/27 01:30:57;;;;;;;4.47;2.70;;;9.70;98.00;;;;;;5055286;28;20460;-71
2024/02/27 01:33:24;;;;;;;4.37;2.80;;;9.70;98.00;;;;;;5054823;28;20442;-72
2024/02/27 01:35:51;;;;;;;6.13;2.80;;;9.60;98.00;;;;;;5055245;28;20848;-72
2024/02/27 01:38:18;;;;;;;3.93;2.50;;;9.50;98.00;;;;;;5036890;28;20488;-72
2024/02/27 01:40:45;;;;;;;8.23;3.00;;;9.60;98.00;;;;;;5054584;28;20824;-71
2024/02/27 01:43:25;;;;;;;5.87;2.90;;;9.60;98.00;;;;;;5054314;28;20452;-71
2024/02/27 01:46:01;;;;;;;5.50;3.23;;;9.50;98.00;;;;;;5054471;28;20454;-72
2024/02/27 01:48:29;;;;;;;7.37;3.50;;;9.50;98.00;;;;;;5054499;28;20464;-72
2024/02/27 01:50:56;;;;;;;6.87;3.40;;;9.50;98.00;;;;;;5054712;28;20460;-72
2024/02/27 01:53:24;;;;;;;6.60;3.37;;;9.70;98.00;;;;;;5054201;28;20533;-71
2024/02/27 01:55:51;;;;;;;7.77;3.93;;;9.70;98.00;;;;;;5053830;28;20446;-72
2024/02/27 01:58:19;;;;;;;7.33;3.73;;;9.50;98.00;;;;;;5052958;28;20482;-71
2024/02/27 02:00:48;;;;;;;6.53;3.80;;;9.50;98.00;;;;;;5054246;28;20453;-72
2024/02/27 02:03:21;;;;;;;6.60;3.63;;;9.50;98.00;;;;;;5054264;28;20485;-71
2024/02/27 02:05:49;;;;;;;7.60;3.93;;;9.50;98.00;;;;;;5036579;28;20505;-72
2024/02/27 02:08:16;;;;;;;9.00;4.50;;;9.60;98.00;;;;;;5053974;28;20449;-72
2024/02/27 02:10:44;;;;;;;6.80;4.13;;;9.60;98.00;;;;;;5054232;28;20662;-71
2024/02/27 02:13:11;;;;;;;8.27;4.10;;;9.60;98.00;;;;;;5054216;28;20450;-72
2024/02/27 02:15:38;;;;;;;10.03;4.37;;;9.60;98.00;;;;;;5036032;28;20453;-72
2024/02/27 02:18:07;;;;;;;7.73;3.90;;;9.60;98.00;;;;;;5053687;28;20441;-72
2024/02/27 02:20:36;;;;;;;7.87;4.27;;;9.50;98.00;;;;;;5053540;28;20500;-71
2024/02/27 02:23:03;;;;;;;9.50;4.60;;;9.40;98.00;;;;;;5053953;28;20449;-72
2024/02/27 02:25:35;;;;;;;9.30;4.57;;;9.20;98.00;;;;;;5053849;28;20503;-72
2024/02/27 02:28:02;;;;;;;11.83;4.90;;;9.10;98.00;;;;;;5054032;28;20465;-71
2024/02/27 02:30:30;;;;;;;9.00;4.63;;;9.00;98.00;;;;;;5053645;28;20816;-71
2024/02/27 02:32:57;;;;;;;8.60;4.47;;;9.00;98.00;;;;;;5054094;28;20480;-71
2024/02/27 02:35:24;;;;;;;9.90;4.83;;;9.10;98.00;;;;;;5053751;28;20485;-71
2024/02/27 02:37:53;;;;;;;12.20;5.07;;;9.10;98.00;;;;;;5053868;28;20473;-71
2024/02/27 02:40:21;;;;;;;11.33;4.87;;;9.20;98.00;;;;;;5053335;28;20485;-71
2024/02/27 02:42:48;;;;;;;9.80;4.77;;;9.20;98.00;;;;;;5053388;28;20491;-71
2024/02/27 02:45:16;;;;;;;10.47;5.13;;;9.20;98.00;;;;;;5053268;28;20445;-71
2024/02/27 02:47:42;;;;;;;8.83;4.93;;;9.10;98.00;;;;;;5053320;28;20460;-72
2024/02/27 02:50:10;;;;;;;7.90;4.33;;;9.00;98.00;;;;;;5053408;28;20464;-71
2024/02/27 02:52:37;;;;;;;9.20;4.83;;;9.00;98.00;;;;;;5053177;28;20536;-71
2024/02/27 02:55:06;;;;;;;12.80;5.60;;;9.00;98.00;;;;;;5053260;28;20453;-72
2024/02/27 02:57:34;;;;;;;10.77;5.20;;;9.20;98.00;;;;;;5053204;28;20504;-71
2024/02/27 03:00:02;;;;;;;9.67;4.50;;;9.30;98.00;;;;;;5053090;28;20571;-72
2024/02/27 03:02:30;;;;;;;11.27;4.90;;;9.10;98.00;;;;;;5052986;28;20446;-71
2024/02/27 03:04:58;;;;;;;11.00;4.60;;;9.10;98.00;;;;;;5052986;28;20539;-72
2024/02/27 03:07:25;;;;;;;12.03;5.00;;;8.90;98.00;;;;;;5052530;28;21139;-71
2024/02/27 03:09:52;;;;;;;11.33;5.17;;;8.90;98.00;;;;;;5053068;28;20503;-71
2024/02/27 03:12:22;;;;;;;12.57;5.23;;;8.90;98.00;;;;;;5053242;28;20835;-72
2024/02/27 03:14:49;;;;;;;11.77;4.90;;;8.90;98.00;;;;;;5053113;28;20477;-72
2024/02/27 03:17:17;;;;;;;10.90;5.13;;;9.10;98.00;;;;;;5053279;28;20457;-71
2024/02/27 03:19:44;;;;;;;12.00;5.50;;;9.00;98.00;;;;;;5053133;28;20486;-71
2024/02/27 03:22:12;;;;;;;12.00;5.70;;;9.00;98.00;;;;;;5053038;28;20453;-71
2024/02/27 03:24:39;;;;;;;12.70;5.60;;;9.10;98.00;;;;;;5052420;28;20485;-71
2024/02/27 03:27:09;;;;;;;12.33;5.20;;;9.00;98.00;;;;;;5052651;28;20492;-71
2024/02/27 03:29:38;;;;;;;13.30;5.63;;;8.90;98.00;;;;;;5052775;28;20458;-71
2024/02/27 03:32:07;;;;;;;10.60;5.13;;;9.00;98.00;;;;;;5052527;28;20830;-71
2024/02/27 03:34:34;;;;;;;12.37;5.43;;;9.10;98.00;;;;;;5052223;28;20488;-71
2024/02/27 03:37:01;;;;;;;11.00;5.40;;;9.00;98.00;;;;;;5035170;28;20445;-71
2024/02/27 03:39:29;;;;;;;13.30;5.73;;;8.90;98.00;;;;;;5052437;28;20571;-71
2024/02/27 03:41:56;;;;;;;14.27;6.00;;;9.00;98.00;;;;;;5052261;28;20586;-72
2024/02/27 03:44:23;;;;;;;16.30;5.73;;;9.00;98.00;;;;;;5052092;28;20473;-71
2024/02/27 03:46:51;;;;;;;14.13;5.70;;;8.80;98.00;;;;;;5052132;28;20955;-71
2024/02/27 03:49:18;;;;;;;13.33;5.70;;;8.80;98.00;;;;;;5052201;28;20452;-71
2024/02/27 03:51:45;;;;;;;11.93;5.67;;;8.80;98.00;;;;;;5034892;28;20438;-71
2024/02/27 03:54:13;;;;;;;11.80;5.40;;;8.80;98.00;;;;;;5052048;28;20969;-72
2024/02/27 03:56:40;;;;;;;12.30;5.30;;;8.80;98.00;;;;;;5051941;28;20460;-71
2024/02/27 03:59:07;;;;;;;11.37;5.30;;;8.80;98.00;;;;;;5052111;28;20487;-71
2024/02/27 04:01:34;;;;;;;13.30;5.73;;;8.70;98.00;;;;;;5052225;28;20834;-71
2024/02/27 04:04:03;;;;;;;14.20;5.83;;;8.60;98.00;;;;;;5051866;28;20468;-71
2024/02/27 04:06:30;;;;;;;13.17;5.80;;;8.70;98.00;;;;;;5051797;28;20450;-72
2024/02/27 04:08:57;;;;;;;13.50;6.30;;;8.80;98.00;;;;;;5051799;28;20468;-71
2024/02/27 04:11:24;;;;;;;13.07;5.60;;;8.80;98.00;;;;;;5051920;28;20829;-71
2024/02/27 04:13:51;;;;;;;16.20;6.63;;;8.90;98.00;;;;;;5051932;28;20450;-71
2024/02/27 04:16:18;;;;;;;14.40;6.27;;;8.90;98.00;;;;;;5051765;28;20462;-71
2024/02/27 04:18:45;;;;;;;13.77;5.70;;;9.00;98.00;;;;;;5051297;28;20470;-71
2024/02/27 04:21:14;;;;;;;10.70;5.73;;;9.00;98.00;;;;;;5051192;28;20456;-71
2024/02/27 04:23:41;;;;;;;13.30;5.87;;;9.10;98.00;;;;;;5051710;28;20453;-71
2024/02/27 04:26:08;;;;;;;10.30;4.83;;;9.00;98.00;;;;;;5034213;28;20461;-71
2024/02/27 04:28:36;;;;;;;11.47;5.47;;;9.00;98.00;;;;;;5051703;28;20453;-71
2024/02/27 04:31:03;;;;;;;14.03;5.90;;;8.90;98.00;;;;;;5034139;28;20453;-71
2024/02/27 04:33:30;;;;;;;14.30;5.50;;;8.90;98.00;;;;;;5051705;28;20477;-71
2024/02/27 04:35:57;;;;;;;14.47;5.80;;;8.80;98.00;;;;;;5051698;28;20932;-71
2024/02/27 04:38:25;;;;;;;13.10;5.70;;;8.80;98.00;;;;;;5051600;28;20516;-71
2024/02/27 04:40:52;;;;;;;14.93;6.10;;;8.70;98.00;;;;;;5051388;28;20477;-71
2024/02/27 04:43:19;;;;;;;17.10;6.43;;;8.50;98.00;;;;;;5051389;28;20460;-71
2024/02/27 04:45:47;;;;;;;14.43;6.00;;;8.40;98.00;;;;;;5051434;28;20454;-71
2024/02/27 04:48:14;;;;;;;10.70;5.80;;;8.50;98.00;;;;;;5051637;28;20450;-71
2024/02/27 04:50:41;;;;;;;11.43;5.57;;;8.40;98.00;;;;;;5033709;28;20476;-71
2024/02/27 04:53:17;;;;;;;13.67;5.97;;;8.40;98.00;;;;;;5051627;28;20453;-71
2024/02/27 04:55:46;;;;;;;16.27;6.80;;;8.50;98.00;;;;;;5051390;28;20544;-71
2024/02/27 04:58:13;;;;;;;12.33;5.50;;;8.50;98.00;;;;;;5051812;28;20457;-71
2024/02/27 05:00:40;;;;;;;11.20;5.30;;;8.50;98.00;;;;;;5051767;28;20485;-71
2024/02/27 05:03:07;;;;;;;15.60;6.60;;;8.60;98.00;;;;;;5051522;28;20451;-71
2024/02/27 05:05:37;;;;;;;14.27;6.10;;;8.60;98.00;;;;;;5051305;28;20445;-71
2024/02/27 05:08:05;;;;;;;17.80;7.10;;;8.70;98.00;;;;;;5051526;28;20483;-71
2024/02/27 05:10:33;;;;;;;16.77;7.23;;;8.60;98.00;;;;;;5051810;28;20455;-71
2024/02/27 05:13:01;;;;;;;17.07;7.37;;;8.50;98.00;;;;;;5051209;28;20448;-71
2024/02/27 05:15:29;;;;;;;19.70;7.37;;;8.60;98.00;;;;;;5051332;28;20809;-71
2024/02/27 05:17:56;;;;;;;14.83;6.97;;;8.60;98.00;;;;;;5051591;28;20492;-71
2024/02/27 05:20:23;;;;;;;18.50;7.13;;;8.80;98.00;;;;;;5050616;28;20484;-71
2024/02/27 05:22:50;;;;;;;16.20;7.70;;;8.90;98.00;;;;;;5051025;28;20837;-71
2024/02/27 05:25:20;;;;;;;15.93;6.80;;;9.00;98.00;;;;;;5051257;28;20448;-71
2024/02/27 05:27:47;;;;;;;17.57;7.57;;;9.00;98.00;;;;;;5051205;28;20468;-71
2024/02/27 05:30:17;;;;;;;16.20;6.90;;;8.70;98.00;;;;;;5051172;28;20922;-71
2024/02/27 05:32:45;;;;;;;16.97;6.27;;;8.60;98.00;;;;;;5054489;28;20454;-71
2024/02/27 05:35:12;;;;;;;18.23;7.53;;;8.60;98.00;;;;;;5054336;28;20450;-71
2024/02/27 05:37:39;;;;;;;19.90;6.30;;;8.70;98.00;;;;;;5054468;28;20501;-71
2024/02/27 05:40:09;;;;;;;17.33;6.70;;;8.60;98.00;;;;;;5054440;28;20831;-71
2024/02/27 05:42:36;;;;;;;14.60;6.70;;;8.60;98.00;;;;;;5054258;28;20463;-71
2024/02/27 05:45:04;;;;;;;18.47;7.00;;;8.50;98.00;;;;;;5054376;28;20465;-71
2024/02/27 05:47:32;;;;;;;18.97;7.23;;;8.50;98.00;;;;;;5053887;28;20527;-71
2024/02/27 05:49:59;;;;;;;18.70;7.40;;;8.60;98.00;;;;;;5054123;28;20447;-71
2024/02/27 05:52:26;;;;;;;18.97;7.33;;;8.70;98.00;;;;;;5054142;28;20521;-71
2024/02/27 05:54:54;;;;;;;17.87;7.03;;;8.60;98.00;;;;;;5054306;28;20693;-71
2024/02/27 05:57:21;;;;;;;16.30;6.93;;;8.50;98.00;;;;;;5054367;28;20453;-71
2024/02/27 05:59:47;;;;;;;16.63;6.50;;;8.50;98.00;;;;;;5054504;28;20489;-71
2024/02/27 06:02:15;;;;;;;17.93;6.90;;;8.50;98.00;;;;;;5054329;28;20449;-71
2024/02/27 06:04:44;;;;;;;19.97;8.23;;;8.70;98.00;;;;;;5054298;28;20475;-71
2024/02/27 06:07:12;;;;;;;16.17;6.83;;;8.70;98.00;;;;;;5054622;28;20451;-71
2024/02/27 06:09:39;;;;;;;16.93;7.27;;;8.70;98.00;;;;;;5054569;28;20443;-71
2024/02/27 06:12:06;;;;;;;17.87;7.10;;;8.60;98.00;;;;;;5054151;28;20459;-71
2024/02/27 06:14:33;;;;;;;14.50;6.50;;;8.70;98.00;;;;;;5054204;28;20447;-71
2024/02/27 06:17:02;;;;;;;20.77;7.80;;;8.70;98.00;;;;;;5036027;28;20851;-71
2024/02/27 06:19:30;;;;;;;17.13;7.40;;;8.70;98.00;;;;;;5053480;28;21055;-71
2024/02/27 06:22:15;;;;;;;17.33;7.43;;;8.70;98.00;;;;;;5054147;28;20446;-71
2024/02/27 06:24:42;;;;;;;23.17;7.80;;;8.60;98.00;;;;;;5054130;28;20468;-71
2024/02/27 06:27:10;;;;;;;15.70;7.00;;;8.60;98.00;;;;;;5053841;28;20464;-71
2024/02/27 06:29:39;;;;;;;20.33;7.57;;;8.50;98.00;;;;;;5053831;28;20859;-71
2024/02/27 06:32:10;;;;;;;19.53;7.60;;;8.50;98.00;;;;;;5019101;28;20459;-71
2024/02/27 06:34:38;;;;;;;18.30;7.67;;;8.40;98.00;;;;;;5053216;28;20541;-72
2024/02/27 06:37:07;;;;;;;19.93;8.47;;;8.50;98.00;;;;;;5053880;28;20455;-71
2024/02/27 06:39:34;;;;;;;17.07;7.90;;;8.40;98.00;;;;;;5053694;28;21096;-71
2024/02/27 06:42:01;;;;;;;22.93;7.90;;;8.40;98.00;;;;;;5052683;28;20460;-71
2024/02/27 06:44:28;;;;;;;20.60;8.57;;;8.40;98.00;;;;;;5053786;28;20459;-71
2024/02/27 06:46:56;;;;;;;20.03;8.20;;;8.50;98.00;;;;;;5035759;28;20846;-71
2024/02/27 06:49:23;;;;;;;18.80;8.40;;;8.40;98.00;;;;;;5054010;28;21058;-71
2024/02/27 06:51:53;;;;;;;17.63;7.73;;;8.30;98.00;;;;;;5053736;28;20449;-71
2024/02/27 06:54:21;;;;;;;21.80;8.53;;;8.40;98.00;;;;;;5054155;28;20456;-71
2024/02/27 06:56:49;;;;;;;22.93;8.73;;;8.40;98.00;;;;;;5053624;28;20463;-71
2024/02/27 06:59:16;;;;;;;21.77;8.97;;;8.50;98.00;;;;;;5053438;28;20454;-77
2024/02/27 07:01:43;;;;;;;22.67;8.23;;;8.40;98.00;;;;;;5053424;28;20816;-79
2024/02/27 07:04:10;;;;;;;21.53;10.13;;;8.50;98.00;;;;;;5053223;28;20798;-79
2024/02/27 07:06:38;;;;;;;25.50;8.90;;;8.50;98.00;;;;;;5053479;28;20921;-78
2024/02/27 07:09:05;;;;;;;20.93;8.63;;;8.50;98.00;;;;;;5053325;28;20447;-77
2024/02/27 07:11:33;;;;;;;38.33;14.37;;;8.50;98.00;;;;;;5052794;28;20451;-78
2024/02/27 07:14:01;;;;;;;18.27;8.20;;;8.50;98.00;;;;;;5053089;28;20456;-78
2024/02/27 07:16:28;;;;;;;23.13;9.17;;;8.50;98.00;;;;;;5017905;28;20827;-77
2024/02/27 07:18:55;;;;;;;22.43;8.60;;;8.40;98.00;;;;;;5034347;28;20450;-77
2024/02/27 07:21:22;;;;;;;22.50;9.40;;;8.40;98.00;;;;;;5052120;28;21017;-79
2024/02/27 07:23:49;;;;;;;22.87;9.93;;;8.40;98.00;;;;;;5053170;28;20445;-77
2024/02/27 07:26:19;;;;;;;21.60;9.10;;;8.40;98.00;;;;;;5052918;28;20446;-79
2024/02/27 07:28:48;;;;;;;18.43;8.60;;;8.40;98.00;;;;;;5052810;28;20512;-79
2024/02/27 07:31:17;;;;;;;26.47;9.80;;;8.50;98.00;;;;;;5052760;28;20437;-79
2024/02/27 07:33:44;;;;;;;29.50;9.80;;;8.50;98.00;;;;;;5053156;28;20907;-78
2024/02/27 07:36:13;;;;;;;26.13;10.30;;;8.60;98.00;;;;;;5035065;28;20454;-77
2024/02/27 07:38:40;;;;;;;27.10;10.70;;;8.60;98.00;;;;;;5035275;28;20464;-77
2024/02/27 07:41:07;;;;;;;21.87;9.10;;;8.70;98.00;;;;;;5052632;28;20859;-77
2024/02/27 07:43:34;;;;;;;23.47;9.80;;;8.70;98.00;;;;;;5052696;28;20446;-79
2024/02/27 07:48:30;;;;;;;18.20;8.13;;;8.70;98.00;;;;;;5030053;28;20470;-77
2024/02/27 07:50:57;;;;;;;25.67;9.43;;;8.60;98.00;;;;;;5032157;28;20465;-76
2024/02/27 07:53:24;;;;;;;23.60;9.50;;;8.60;98.00;;;;;;5031862;28;20465;-77
2024/02/27 07:55:51;;;;;;;29.27;10.57;;;8.50;98.00;;;;;;5031705;28;20500;-78
2024/02/27 07:58:19;;;;;;;28.50;9.63;;;8.40;98.00;;;;;;5031554;28;20462;-78
2024/02/27 08:00:46;;;;;;;25.70;9.27;;;8.70;98.00;;;;;;5032019;28;20580;-78
2024/02/27 08:03:13;;;;;;;19.43;8.93;;;8.70;98.00;;;;;;5030799;28;20458;-78
2024/02/27 08:05:41;;;;;;;25.23;8.97;;;8.90;98.00;;;;;;5032031;28;20459;-78
2024/02/27 08:08:09;;;;;;;24.37;10.13;;;8.90;98.00;;;;;;5014410;28;20459;-79
2024/02/27 08:10:36;;;;;;;20.23;8.90;;;9.00;98.00;;;;;;5032310;28;20447;-78
2024/02/27 08:13:04;;;;;;;22.40;9.70;;;8.90;98.00;;;;;;5031111;28;21037;-78
2024/02/27 08:15:31;;;;;;;26.90;10.10;;;8.90;98.00;;;;;;5032216;28;20457;-78
2024/02/27 08:17:58;;;;;;;25.50;9.00;;;8.90;98.00;;;;;;5032260;28;20456;-76
2024/02/27 08:20:25;;;;;;;26.90;9.10;;;9.10;98.00;;;;;;5031996;28;20547;-77
2024/02/27 08:22:54;;;;;;;24.47;9.93;;;9.20;98.00;;;;;;5030992;28;20453;-79
2024/02/27 08:25:21;;;;;;;23.50;9.17;;;9.20;98.00;;;;;;5031868;28;20448;-82
2024/02/27 08:27:48;;;;;;;25.23;9.80;;;9.10;98.00;;;;;;5032174;28;20859;-75
2024/02/27 08:30:16;;;;;;;22.37;8.43;;;9.10;98.00;;;;;;5031935;28;20452;-70
2024/02/27 08:32:43;;;;;;;23.17;9.60;;;9.20;98.00;;;;;;5032323;28;20464;-78
2024/02/27 08:35:10;;;;;;;24.00;9.30;;;9.20;98.00;;;;;;5031963;28;20456;-78
2024/02/27 08:37:38;;;;;;;20.97;9.27;;;9.20;98.00;;;;;;5032205;28;20458;-77
2024/02/27 08:40:08;;;;;;;20.67;9.03;;;9.10;98.00;;;;;;5031871;28;20465;-77
2024/02/27 08:42:36;;;;;;;23.93;9.83;;;9.20;98.00;;;;;;5031714;28;20516;-77
2024/02/27 08:45:04;;;;;;;23.50;9.53;;;9.20;98.00;;;;;;5032462;28;20565;-78
2024/02/27 08:47:31;;;;;;;20.93;8.80;;;9.30;98.00;;;;;;5031261;28;20468;-78
2024/02/27 08:49:58;;;;;;;21.90;8.83;;;9.30;98.00;;;;;;5032131;28;20451;-78
2024/02/27 08:52:25;;;;;;;23.60;10.10;;;9.30;98.00;;;;;;5030919;28;20459;-79
2024/02/27 08:54:52;;;;;;;20.40;8.43;;;9.30;98.00;;;;;;5031870;28;20451;-78
2024/02/27 08:57:22;;;;;;;22.70;9.53;;;9.50;98.00;;;;;;5031701;28;20458;-79
2024/02/27 08:59:49;;;;;;;21.13;9.60;;;9.50;98.00;;;;;;5032374;28;20972;-78
2024/02/27 09:02:24;;;;;;;26.90;10.37;;;9.50;98.00;;;;;;5031285;28;20494;-79
2024/02/27 09:04:53;;;;;;;21.10;9.50;;;9.60;98.00;;;;;;5032306;28;20485;-79
2024/02/27 09:07:20;;;;;;;23.63;9.47;;;9.60;98.00;;;;;;5035510;28;20455;-80
2024/02/27 09:09:47;;;;;;;21.27;9.27;;;9.70;98.00;;;;;;5018107;28;20832;-78
2024/02/27 09:12:15;;;;;;;23.87;9.50;;;9.70;98.00;;;;;;5035699;28;20461;-77
2024/02/27 09:14:45;;;;;;;27.00;8.80;;;9.90;98.00;;;;;;5035736;28;20454;-77
2024/02/27 09:17:13;;;;;;;22.20;9.27;;;9.80;98.00;;;;;;5035291;28;20818;-77
2024/02/27 09:19:40;;;;;;;23.60;9.33;;;9.90;98.00;;;;;;5035247;28;20455;-78
2024/02/27 09:22:07;;;;;;;22.03;8.90;;;9.90;98.00;;;;;;5035442;28;20486;-78
2024/02/27 09:24:34;;;;;;;20.83;9.40;;;10.00;98.00;;;;;;5035500;28;20470;-78
2024/02/27 09:27:01;;;;;;;22.00;9.07;;;10.00;98.00;;;;;;5035407;28;20478;-78
2024/02/27 09:29:28;;;;;;;20.13;9.33;;;10.10;98.00;;;;;;5035050;28;20450;-79
2024/02/27 09:31:57;;;;;;;20.73;9.10;;;10.20;98.00;;;;;;5035182;28;20804;-77
2024/02/27 09:34:24;;;;;;;19.90;8.60;;;10.20;98.00;;;;;;5034856;28;20466;-78
2024/02/27 09:36:53;;;;;;;22.13;9.87;;;10.30;98.00;;;;;;5035023;28;20458;-77
2024/02/27 09:39:21;;;;;;;21.70;9.27;;;10.30;98.00;;;;;;5017878;28;20539;-77
2024/02/27 09:41:56;;;;;;;23.40;9.40;;;10.30;98.00;;;;;;5034938;28;20521;-78
2024/02/27 09:44:23;;;;;;;24.20;9.70;;;10.30;98.00;;;;;;5034562;28;20460;-77
2024/02/27 09:46:51;;;;;;;24.73;10.40;;;10.30;98.00;;;;;;5034872;28;20462;-78
2024/02/27 09:49:22;;;;;;;21.67;9.33;;;10.40;98.00;;;;;;5034902;28;20459;-76
2024/02/27 09:51:52;;;;;;;23.33;9.80;;;10.10;98.00;;;;;;5034920;28;20485;-78
2024/02/27 09:54:20;;;;;;;24.90;10.10;;;10.10;98.00;;;;;;5034738;28;20450;-77
2024/02/27 09:56:48;;;;;;;27.97;9.93;;;10.00;98.00;;;;;;5035000;28;20450;-78
2024/02/27 09:59:18;;;;;;;20.27;8.87;;;9.90;98.00;;;;;;5034869;28;20827;-76
2024/02/27 10:01:48;;;;;;;22.63;9.10;;;10.00;98.00;;;;;;5034703;28;20487;-77
2024/02/27 10:04:19;;;;;;;21.67;9.00;;;10.00;98.00;;;;;;5034662;28;21141;-76
2024/02/27 10:06:49;;;;;;;22.83;9.60;;;10.00;98.00;;;;;;5034377;28;20948;-78
2024/02/27 10:09:20;;;;;;;22.80;9.80;;;10.10;98.00;;;;;;5034638;28;20454;-78
2024/02/27 10:11:48;;;;;;;24.80;9.80;;;10.20;98.00;;;;;;5034788;28;20451;-78
2024/02/27 10:14:31;;;;;;;25.87;10.60;;;10.30;98.00;;;;;;5034654;28;20865;-76
2024/02/27 10:16:59;;;;;;;29.83;9.73;;;10.30;98.00;;;;;;5034317;28;20455;-77
2024/02/27 10:19:28;;;;;;;21.83;9.20;;;10.20;98.00;;;;;;5034519;28;20450;-77
2024/02/27 10:21:57;;;;;;;24.13;9.23;;;10.30;98.00;;;;;;5034405;28;20487;-77
2024/02/27 10:24:28;;;;;;;21.80;9.30;;;10.40;98.00;;;;;;5034243;28;20459;-80
2024/02/27 10:26:55;;;;;;;22.50;9.33;;;10.40;98.00;;;;;;5033784;28;20458;-80
2024/02/27 10:29:24;;;;;;;21.50;9.17;;;10.40;98.00;;;;;;5034521;28;20447;-77
2024/02/27 10:31:51;;;;;;;22.93;9.93;;;10.50;98.00;;;;;;5034567;28;20459;-78
2024/02/27 10:34:19;;;;;;;23.43;9.50;;;10.50;98.00;;;;;;5034248;28;20455;-77
2024/02/27 10:36:57;;;;;;;21.00;8.90;;;10.40;98.00;;;;;;5033184;28;20518;-79
2024/02/27 10:39:26;;;;;;;27.03;10.30;;;10.40;98.00;;;;;;5032538;28;20474;-76
2024/02/27 10:41:53;;;;;;;25.70;10.47;;;10.50;98.00;;;;;;5032580;28;20478;-79
2024/02/27 10:44:21;;;;;;;23.63;10.37;;;10.60;98.00;;;;;;5033994;28;20455;-78
2024/02/27 10:46:48;;;;;;;26.20;9.80;;;10.60;98.00;;;;;;5033886;28;20492;-78
2024/02/27 10:49:19;;;;;;;22.10;9.20;;;10.70;98.00;;;;;;5033682;28;20501;-78
2024/02/27 10:51:47;;;;;;;21.07;9.27;;;10.60;98.00;;;;;;5033710;28;20779;-77
2024/02/27 10:54:16;;;;;;;26.20;10.60;;;10.50;98.00;;;;;;5033807;28;20462;-77
2024/02/27 10:56:46;;;;;;;24.00;9.97;;;10.60;98.00;;;;;;5033018;28;20512;-78
2024/02/27 10:59:14;;;;;;;26.60;10.67;;;10.70;98.00;;;;;;5033325;28;20530;-77
2024/02/27 11:01:42;;;;;;;25.30;10.67;;;10.80;98.00;;;;;;5033187;28;20518;-77
2024/02/27 11:04:18;;;;;;;23.83;10.30;;;10.80;98.00;;;;;;5015978;28;20824;-77
2024/02/27 11:06:48;;;;;;;35.43;11.37;;;10.80;98.00;;;;;;5033364;28;20485;-78
2024/02/27 11:09:20;;;;;;;25.90;9.80;;;10.70;98.00;;;;;;5033251;28;20547;-78
2024/02/27 11:11:56;;;;;;;24.47;10.47;;;10.90;98.00;;;;;;5033136;28;20457;-77
2024/02/27 11:14:26;;;;;;;25.07;10.93;;;10.90;98.00;;;;;;5033131;28;20453;-78
2024/02/27 11:16:58;;;;;;;28.10;10.57;;;11.00;98.00;;;;;;5033093;28;20454;-78
2024/02/27 11:19:27;;;;;;;27.60;11.47;;;11.10;98.00;;;;;;5032578;28;20967;-78
2024/02/27 11:21:56;;;;;;;21.07;9.87;;;11.30;98.00;;;;;;5032676;28;20496;-78
2024/02/27 11:24:23;;;;;;;24.60;10.53;;;11.50;98.00;;;;;;5039363;28;20462;-77
2024/02/27 11:26:54;;;;;;;25.50;10.47;;;11.90;98.00;;;;;;5032937;28;20459;-77
2024/02/27 11:29:21;;;;;;;25.07;10.83;;;12.20;98.00;;;;;;5032339;28;20454;-77
2024/02/27 11:31:49;;;;;;;30.43;11.57;;;12.40;98.00;;;;;;5032814;28;20459;-77
2024/02/27 11:34:23;;;;;;;26.77;11.37;;;12.40;98.00;;;;;;5032888;28;21255;-77
2024/02/27 11:37:10;;;;;;;28.27;11.10;;;12.40;98.00;;;;;;5032632;28;20487;-77
2024/02/27 11:39:37;;;;;;;28.33;10.93;;;12.40;98.00;;;;;;5032689;28;20456;-77
2024/02/27 11:42:08;;;;;;;24.20;10.77;;;12.40;98.00;;;;;;5032602;28;21026;-77
2024/02/27 11:45:02;;;;;;;26.23;12.00;;;12.30;98.00;;;;;;5032620;28;20455;-77
2024/02/27 11:47:51;;;;;;;26.63;11.07;;;12.20;98.00;;;;;;5032299;28;20546;-77
2024/02/27 11:50:45;;;;;;;27.87;11.30;;;12.20;98.00;;;;;;5033032;28;20544;-76
2024/02/27 11:53:37;;;;;;;28.87;12.10;;;12.30;98.00;;;;;;5034414;28;20470;-77
2024/02/27 11:56:07;;;;;;;27.30;11.17;;;12.50;98.00;;;;;;5032704;28;20799;-67
2024/02/27 11:58:35;;;;;;;29.13;11.43;;;12.70;98.00;;;;;;5033036;28;20971;-80
2024/02/27 12:01:05;;;;;;;23.70;10.50;;;12.90;98.00;;;;;;5034784;28;20451;-79
2024/02/27 12:03:32;;;;;;;30.60;11.50;;;12.90;98.00;;;;;;5032655;28;20460;-78
2024/02/27 12:06:03;;;;;;;27.37;12.10;;;13.00;98.00;;;;;;5032374;28;20503;-77
2024/02/27 12:08:31;;;;;;;27.80;11.23;;;12.90;98.00;;;;;;5031868;28;20457;-77
2024/02/27 12:10:59;;;;;;;25.00;11.07;;;12.80;98.00;;;;;;5032537;28;20831;-77
2024/02/27 12:13:26;;;;;;;24.93;10.73;;;12.70;98.00;;;;;;5032223;28;20484;-78
2024/02/27 12:15:58;;;;;;;24.67;11.00;;;12.70;98.00;;;;;;5032306;28;20449;-77
2024/02/27 12:18:26;;;;;;;23.53;10.07;;;12.70;98.00;;;;;;5032123;28;20449;-78
2024/02/27 12:20:54;;;;;;;21.87;10.20;;;12.50;98.00;;;;;;5014453;28;20479;-77
2024/02/27 12:23:22;;;;;;;26.60;10.60;;;12.60;98.00;;;;;;5032371;28;20527;-81
2024/02/27 12:25:50;;;;;;;23.07;9.20;;;12.50;98.00;;;;;;5032377;28;20503;-81
2024/02/27 12:28:18;;;;;;;26.90;11.47;;;12.50;98.00;;;;;;5032821;28;20800;-81
2024/02/27 12:30:47;;;;;;;24.00;10.23;;;12.60;98.00;;;;;;5031901;28;20455;-80
2024/02/27 12:33:17;;;;;;;26.30;10.77;;;12.50;98.00;;;;;;5032440;28;20509;-79
2024/02/27 12:35:45;;;;;;;30.10;11.23;;;12.40;98.00;;;;;;5031802;28;20450;-78
2024/02/27 12:38:12;;;;;;;27.40;11.70;;;12.40;98.00;;;;;;5031782;28;20484;-79
2024/02/27 12:40:41;;;;;;;29.33;11.70;;;12.40;98.00;;;;;;5032745;28;20458;-79
2024/02/27 12:43:08;;;;;;;28.20;12.07;;;12.40;98.00;;;;;;5035372;28;20484;-79
2024/02/27 12:45:36;;;;;;;25.00;10.90;;;12.40;98.00;;;;;;5036189;28;20848;-78
2024/02/27 12:48:04;;;;;;;24.23;11.30;;;12.50;98.00;;;;;;5035885;28;20580;-79
2024/02/27 12:50:32;;;;;;;26.97;10.87;;;12.60;98.00;;;;;;5035816;28;20483;-79
2024/02/27 12:53:01;;;;;;;25.77;11.60;;;12.70;98.00;;;;;;5035808;28;20467;-80
2024/02/27 12:55:30;;;;;;;26.80;11.17;;;12.80;98.00;;;;;;5035935;28;20460;-78